sensor_id;sensor_type;location;lat;lon;timestamp;P1;durP1;ratioP1;P2;durP2;ratioP2
62151;SDS011;48139;47.474;19.034;2023-03-31T03:48:19;8.05;;;4.60;;
62151;SDS011;48139;47.474;19.034;2023-03-31T03:51:23;11.98;;;4.22;;
62151;SDS011;48139;47.474;19.034;2023-03-31T03:54:25;7.93;;;3.95;;
62151;SDS011;48139;47.474;19.034;2023-03-31T03:57:28;16.43;;;4.90;;
62151;SDS011;48139;47.474;19.034;2023-03-31T04:00:30;8.65;;;4.68;;
62151;SDS011;48139;47.474;19.034;2023-03-31T04:03:34;8.65;;;4.68;;
62151;SDS011;48139;47.474;19.034;2023-03-31T04:06:36;7.55;;;3.87;;
62151;SDS011;48139;47.474;19.034;2023-03-31T04:09:39;7.37;;;4.47;;
62151;SDS011;48139;47.474;19.034;2023-03-31T04:12:41;10.05;;;4.37;;
62151;SDS011;48139;47.474;19.034;2023-03-31T04:15:44;8.73;;;5.23;;
62151;SDS011;48139;47.474;19.034;2023-03-31T04:18:52;12.68;;;5.10;;
62151;SDS011;48139;47.474;19.034;2023-03-31T04:21:58;8.20;;;5.10;;
62151;SDS011;48139;47.474;19.034;2023-03-31T04:25:04;8.93;;;4.87;;
62151;SDS011;48139;47.474;19.034;2023-03-31T04:28:16;10.05;;;5.40;;
62151;SDS011;48139;47.474;19.034;2023-03-31T04:31:19;9.37;;;5.50;;
62151;SDS011;48139;47.474;19.034;2023-03-31T04:34:27;9.80;;;4.70;;
62151;SDS011;48139;47.474;19.034;2023-03-31T04:37:36;9.13;;;5.53;;
62151;SDS011;48139;47.474;19.034;2023-03-31T04:40:40;10.88;;;5.32;;
62151;SDS011;48139;47.474;19.034;2023-03-31T04:43:42;14.52;;;7.03;;
62151;SDS011;48139;47.474;19.034;2023-03-31T04:46:45;9.80;;;6.12;;
62151;SDS011;48139;47.474;19.034;2023-03-31T04:49:48;13.10;;;8.85;;
62151;SDS011;48139;47.474;19.034;2023-03-31T04:52:51;9.23;;;5.80;;
62151;SDS011;48139;47.474;19.034;2023-03-31T04:55:54;10.63;;;6.47;;
62151;SDS011;48139;47.474;19.034;2023-03-31T04:58:58;9.93;;;6.15;;
62151;SDS011;48139;47.474;19.034;2023-03-31T05:02:01;12.55;;;6.10;;
62151;SDS011;48139;47.474;19.034;2023-03-31T05:05:04;11.23;;;6.93;;
62151;SDS011;48139;47.474;19.034;2023-03-31T05:08:07;11.82;;;6.20;;
62151;SDS011;48139;47.474;19.034;2023-03-31T05:11:10;11.30;;;6.10;;
62151;SDS011;48139;47.474;19.034;2023-03-31T05:14:13;10.20;;;6.60;;
62151;SDS011;48139;47.474;19.034;2023-03-31T05:17:17;10.23;;;6.30;;
62151;SDS011;48139;47.474;19.034;2023-03-31T05:20:20;10.13;;;6.32;;
62151;SDS011;48139;47.474;19.034;2023-03-31T05:23:23;12.73;;;8.87;;
62151;SDS011;48139;47.474;19.034;2023-03-31T05:26:25;14.50;;;7.78;;
62151;SDS011;48139;47.474;19.034;2023-03-31T05:29:28;12.27;;;8.07;;
62151;SDS011;48139;47.474;19.034;2023-03-31T05:32:32;14.43;;;8.10;;
62151;SDS011;48139;47.474;19.034;2023-03-31T05:35:35;12.07;;;6.45;;
62151;SDS011;48139;47.474;19.034;2023-03-31T05:38:38;14.97;;;7.70;;
62151;SDS011;48139;47.474;19.034;2023-03-31T05:41:41;11.48;;;6.40;;
62151;SDS011;48139;47.474;19.034;2023-03-31T05:44:46;12.27;;;6.12;;
62151;SDS011;48139;47.474;19.034;2023-03-31T05:47:49;13.27;;;6.97;;
62151;SDS011;48139;47.474;19.034;2023-03-31T05:50:55;8.23;;;5.70;;
62151;SDS011;48139;47.474;19.034;2023-03-31T05:53:59;11.55;;;5.75;;
62151;SDS011;48139;47.474;19.034;2023-03-31T05:57:01;9.53;;;5.57;;
62151;SDS011;48139;47.474;19.034;2023-03-31T06:00:05;11.52;;;5.22;;
62151;SDS011;48139;47.474;19.034;2023-03-31T06:03:12;9.95;;;5.07;;
62151;SDS011;48139;47.474;19.034;2023-03-31T06:06:15;9.55;;;4.65;;
62151;SDS011;48139;47.474;19.034;2023-03-31T06:09:18;11.52;;;4.37;;
62151;SDS011;48139;47.474;19.034;2023-03-31T06:12:21;8.77;;;4.57;;
62151;SDS011;48139;47.474;19.034;2023-03-31T06:15:24;7.87;;;4.32;;
62151;SDS011;48139;47.474;19.034;2023-03-31T06:18:27;11.98;;;4.97;;
62151;SDS011;48139;47.474;19.034;2023-03-31T06:21:31;7.72;;;3.72;;
62151;SDS011;48139;47.474;19.034;2023-03-31T06:24:34;8.40;;;5.00;;
62151;SDS011;48139;47.474;19.034;2023-03-31T06:27:37;15.32;;;5.50;;
62151;SDS011;48139;47.474;19.034;2023-03-31T06:30:39;6.47;;;4.10;;
62151;SDS011;48139;47.474;19.034;2023-03-31T06:33:43;9.32;;;4.25;;
62151;SDS011;48139;47.474;19.034;2023-03-31T06:36:46;6.62;;;3.55;;
62151;SDS011;48139;47.474;19.034;2023-03-31T06:39:49;10.98;;;4.90;;
62151;SDS011;48139;47.474;19.034;2023-03-31T06:42:52;7.47;;;3.65;;
62151;SDS011;48139;47.474;19.034;2023-03-31T06:48:57;9.45;;;4.25;;
62151;SDS011;48139;47.474;19.034;2023-03-31T06:52:00;11.20;;;3.87;;
62151;SDS011;48139;47.474;19.034;2023-03-31T06:55:03;8.80;;;3.77;;
62151;SDS011;48139;47.474;19.034;2023-03-31T06:58:06;10.52;;;4.05;;
62151;SDS011;48139;47.474;19.034;2023-03-31T07:01:09;8.23;;;5.05;;
62151;SDS011;48139;47.474;19.034;2023-03-31T07:04:16;5.78;;;3.40;;
62151;SDS011;48139;47.474;19.034;2023-03-31T07:07:18;17.42;;;4.37;;
62151;SDS011;48139;47.474;19.034;2023-03-31T07:10:21;28.38;;;4.57;;
62151;SDS011;48139;47.474;19.034;2023-03-31T07:13:25;6.60;;;2.92;;
62151;SDS011;48139;47.474;19.034;2023-03-31T07:16:29;7.12;;;3.87;;
62151;SDS011;48139;47.474;19.034;2023-03-31T07:19:32;6.93;;;3.28;;
62151;SDS011;48139;47.474;19.034;2023-03-31T07:22:42;7.70;;;3.72;;
62151;SDS011;48139;47.474;19.034;2023-03-31T07:25:46;8.90;;;4.00;;
62151;SDS011;48139;47.474;19.034;2023-03-31T07:28:50;5.15;;;3.22;;
62151;SDS011;48139;47.474;19.034;2023-03-31T07:31:53;8.55;;;3.67;;
62151;SDS011;48139;47.474;19.034;2023-03-31T07:34:56;8.27;;;2.95;;
62151;SDS011;48139;47.474;19.034;2023-03-31T07:37:58;5.95;;;3.10;;
62151;SDS011;48139;47.474;19.034;2023-03-31T07:44:11;10.90;;;3.45;;
62151;SDS011;48139;47.474;19.034;2023-03-31T07:47:14;12.23;;;4.28;;
62151;SDS011;48139;47.474;19.034;2023-03-31T07:50:17;11.35;;;4.40;;
62151;SDS011;48139;47.474;19.034;2023-03-31T07:53:22;11.88;;;5.18;;
62151;SDS011;48139;47.474;19.034;2023-03-31T07:56:25;7.18;;;5.00;;
62151;SDS011;48139;47.474;19.034;2023-03-31T08:02:32;9.10;;;5.35;;
62151;SDS011;48139;47.474;19.034;2023-03-31T08:05:35;7.72;;;4.15;;
62151;SDS011;48139;47.474;19.034;2023-03-31T08:08:38;7.12;;;3.92;;
62151;SDS011;48139;47.474;19.034;2023-03-31T08:11:44;13.20;;;5.25;;
62151;SDS011;48139;47.474;19.034;2023-03-31T08:14:49;8.88;;;3.42;;
62151;SDS011;48139;47.474;19.034;2023-03-31T08:17:52;9.40;;;4.32;;
62151;SDS011;48139;47.474;19.034;2023-03-31T08:20:55;7.70;;;4.15;;
62151;SDS011;48139;47.474;19.034;2023-03-31T08:23:57;7.40;;;4.65;;
62151;SDS011;48139;47.474;19.034;2023-03-31T08:27:00;10.45;;;4.90;;
62151;SDS011;48139;47.474;19.034;2023-03-31T08:30:03;8.23;;;3.87;;
62151;SDS011;48139;47.474;19.034;2023-03-31T08:33:07;5.95;;;3.62;;
62151;SDS011;48139;47.474;19.034;2023-03-31T08:39:13;7.00;;;3.63;;
62151;SDS011;48139;47.474;19.034;2023-03-31T08:42:36;7.82;;;3.92;;
62151;SDS011;48139;47.474;19.034;2023-03-31T08:45:44;10.93;;;4.30;;
62151;SDS011;48139;47.474;19.034;2023-03-31T08:48:50;10.57;;;4.70;;
62151;SDS011;48139;47.474;19.034;2023-03-31T08:52:00;9.75;;;4.35;;
62151;SDS011;48139;47.474;19.034;2023-03-31T08:55:06;5.72;;;3.37;;
62151;SDS011;48139;47.474;19.034;2023-03-31T08:58:23;6.70;;;3.40;;
62151;SDS011;48139;47.474;19.034;2023-03-31T09:08:31;7.95;;;3.10;;
62151;SDS011;48139;47.474;19.034;2023-03-31T09:11:38;11.38;;;4.25;;
62151;SDS011;48139;47.474;19.034;2023-03-31T09:21:17;8.55;;;3.60;;
62151;SDS011;48139;47.474;19.034;2023-03-31T09:24:31;8.52;;;3.62;;
62151;SDS011;48139;47.474;19.034;2023-03-31T09:27:41;8.05;;;3.80;;
62151;SDS011;48139;47.474;19.034;2023-03-31T09:30:44;8.40;;;3.95;;
62151;SDS011;48139;47.474;19.034;2023-03-31T09:33:54;9.75;;;3.45;;
62151;SDS011;48139;47.474;19.034;2023-03-31T09:37:05;6.68;;;3.22;;
62151;SDS011;48139;47.474;19.034;2023-03-31T09:40:12;7.28;;;3.47;;
62151;SDS011;48139;47.474;19.034;2023-03-31T09:43:22;10.55;;;3.58;;
62151;SDS011;48139;47.474;19.034;2023-03-31T09:46:29;7.87;;;2.72;;
62151;SDS011;48139;47.474;19.034;2023-03-31T09:49:34;7.70;;;3.10;;
62151;SDS011;48139;47.474;19.034;2023-03-31T09:52:39;5.97;;;2.65;;
62151;SDS011;48139;47.474;19.034;2023-03-31T09:55:54;11.07;;;3.45;;
62151;SDS011;48139;47.474;19.034;2023-03-31T09:59:02;6.05;;;2.97;;
62151;SDS011;48139;47.474;19.034;2023-03-31T10:02:27;9.75;;;3.50;;
62151;SDS011;48139;47.474;19.034;2023-03-31T10:05:37;7.50;;;2.97;;
62151;SDS011;48139;47.474;19.034;2023-03-31T10:08:48;9.02;;;2.95;;
62151;SDS011;48139;47.474;19.034;2023-03-31T10:15:28;6.07;;;3.47;;
62151;SDS011;48139;47.474;19.034;2023-03-31T10:18:34;7.68;;;2.95;;
62151;SDS011;48139;47.474;19.034;2023-03-31T10:21:39;5.12;;;2.97;;
62151;SDS011;48139;47.474;19.034;2023-03-31T10:24:43;6.18;;;3.00;;
62151;SDS011;48139;47.474;19.034;2023-03-31T10:27:47;4.75;;;3.05;;
62151;SDS011;48139;47.474;19.034;2023-03-31T10:30:55;6.18;;;2.80;;
62151;SDS011;48139;47.474;19.034;2023-03-31T10:34:06;4.50;;;2.42;;
62151;SDS011;48139;47.474;19.034;2023-03-31T10:37:16;5.93;;;2.20;;
62151;SDS011;48139;47.474;19.034;2023-03-31T10:40:21;6.37;;;3.00;;
62151;SDS011;48139;47.474;19.034;2023-03-31T10:43:28;6.37;;;2.30;;
62151;SDS011;48139;47.474;19.034;2023-03-31T10:49:42;7.60;;;3.40;;
62151;SDS011;48139;47.474;19.034;2023-03-31T10:52:46;7.15;;;3.67;;
62151;SDS011;48139;47.474;19.034;2023-03-31T11:06:06;6.07;;;3.42;;
62151;SDS011;48139;47.474;19.034;2023-03-31T11:16:26;6.32;;;3.20;;
62151;SDS011;48139;47.474;19.034;2023-03-31T11:24:00;6.78;;;3.40;;
62151;SDS011;48139;47.474;19.034;2023-03-31T11:26:56;5.22;;;2.22;;
62151;SDS011;48139;47.474;19.034;2023-03-31T11:30:36;8.25;;;3.62;;
62151;SDS011;48139;47.474;19.034;2023-03-31T11:44:18;4.65;;;2.50;;
62151;SDS011;48139;47.474;19.034;2023-03-31T11:50:26;7.97;;;2.65;;
62151;SDS011;48139;47.474;19.034;2023-03-31T11:53:35;6.40;;;2.62;;
62151;SDS011;48139;47.474;19.034;2023-03-31T11:56:43;6.55;;;2.50;;
62151;SDS011;48139;47.474;19.034;2023-03-31T11:59:53;7.62;;;2.40;;
62151;SDS011;48139;47.474;19.034;2023-03-31T12:03:10;5.40;;;2.12;;
62151;SDS011;48139;47.474;19.034;2023-03-31T12:06:20;7.78;;;3.35;;
62151;SDS011;48139;47.474;19.034;2023-03-31T12:09:29;10.32;;;4.97;;
62151;SDS011;48139;47.474;19.034;2023-03-31T12:12:42;9.43;;;3.22;;
62151;SDS011;48139;47.474;19.034;2023-03-31T12:15:56;5.78;;;3.08;;
62151;SDS011;48139;47.474;19.034;2023-03-31T12:25:44;6.47;;;2.70;;
62151;SDS011;48139;47.474;19.034;2023-03-31T12:28:55;5.45;;;2.50;;
62151;SDS011;48139;47.474;19.034;2023-03-31T12:32:02;7.97;;;3.10;;
62151;SDS011;48139;47.474;19.034;2023-03-31T12:35:28;5.95;;;3.12;;
62151;SDS011;48139;47.474;19.034;2023-03-31T12:39:09;7.05;;;2.92;;
62151;SDS011;48139;47.474;19.034;2023-03-31T13:00:15;4.45;;;2.47;;
62151;SDS011;48139;47.474;19.034;2023-03-31T13:16:18;6.85;;;2.85;;
62151;SDS011;48139;47.474;19.034;2023-03-31T13:19:32;6.60;;;2.78;;
62151;SDS011;48139;47.474;19.034;2023-03-31T13:22:39;5.18;;;2.47;;
62151;SDS011;48139;47.474;19.034;2023-03-31T13:32:21;7.40;;;2.10;;
62151;SDS011;48139;47.474;19.034;2023-03-31T13:35:26;5.97;;;2.62;;
62151;SDS011;48139;47.474;19.034;2023-03-31T13:38:40;5.20;;;2.33;;
62151;SDS011;48139;47.474;19.034;2023-03-31T13:48:36;8.55;;;2.58;;
62151;SDS011;48139;47.474;19.034;2023-03-31T14:01:45;9.25;;;2.85;;
62151;SDS011;48139;47.474;19.034;2023-03-31T14:11:40;6.03;;;2.30;;
62151;SDS011;48139;47.474;19.034;2023-03-31T14:14:43;5.78;;;2.05;;
62151;SDS011;48139;47.474;19.034;2023-03-31T14:17:46;8.57;;;2.85;;
62151;SDS011;48139;47.474;19.034;2023-03-31T14:31:00;7.18;;;2.03;;
62151;SDS011;48139;47.474;19.034;2023-03-31T14:34:17;8.73;;;3.33;;
62151;SDS011;48139;47.474;19.034;2023-03-31T14:37:30;8.27;;;2.10;;
62151;SDS011;48139;47.474;19.034;2023-03-31T14:40:33;8.85;;;2.72;;
62151;SDS011;48139;47.474;19.034;2023-03-31T14:43:36;5.28;;;2.47;;
62151;SDS011;48139;47.474;19.034;2023-03-31T14:46:46;5.75;;;2.20;;
62151;SDS011;48139;47.474;19.034;2023-03-31T14:50:00;7.07;;;2.60;;
62151;SDS011;48139;47.474;19.034;2023-03-31T14:53:17;5.68;;;2.75;;
62151;SDS011;48139;47.474;19.034;2023-03-31T14:56:27;7.93;;;2.47;;
62151;SDS011;48139;47.474;19.034;2023-03-31T14:59:34;7.35;;;3.87;;
62151;SDS011;48139;47.474;19.034;2023-03-31T15:02:39;7.35;;;2.58;;
62151;SDS011;48139;47.474;19.034;2023-03-31T15:05:44;5.55;;;2.30;;
62151;SDS011;48139;47.474;19.034;2023-03-31T15:08:51;5.40;;;2.17;;
62151;SDS011;48139;47.474;19.034;2023-03-31T15:12:02;4.70;;;2.40;;
62151;SDS011;48139;47.474;19.034;2023-03-31T15:15:09;5.30;;;2.22;;
62151;SDS011;48139;47.474;19.034;2023-03-31T15:18:15;8.02;;;3.08;;
62151;SDS011;48139;47.474;19.034;2023-03-31T15:21:19;5.03;;;2.55;;
62151;SDS011;48139;47.474;19.034;2023-03-31T15:24:22;11.52;;;2.60;;
62151;SDS011;48139;47.474;19.034;2023-03-31T15:27:39;6.57;;;3.70;;
62151;SDS011;48139;47.474;19.034;2023-03-31T15:30:48;6.07;;;2.65;;
